Time;durP1;ratioP1;P1;durP2;ratioP2;P2;SDS_P1;SDS_P2;PMS_P1;PMS_P2;Temp;Humidity;BMP_temperature;BMP_pressure;BME280_temperature;BME280_humidity;BME280_pressure;Samples;Min_cycle;Max_cycle;Signal;HPM_P1;HPM_P2
2022/12/18 00:00:46;;;;;;;61.40;36.85;;;;;;;;;;5049800;28;20402;-84
2022/12/18 00:03:13;;;;;;;62.47;36.20;;;;;;;;;;5047703;28;20373;-85
2022/12/18 00:05:46;;;;;;;67.05;37.28;;;;;;;;;;5050308;28;20385;-84
2022/12/18 00:08:12;;;;;;;63.47;36.88;;;;;;;;;;5030391;28;20438;-84
2022/12/18 00:10:38;;;;;;;63.00;36.30;;;;;;;;;;5050226;28;20389;-84
2022/12/18 00:13:04;;;;;;;60.45;35.85;;;;;;;;;;5050073;28;20412;-84
2022/12/18 00:15:30;;;;;;;64.75;37.08;;;;;;;;;;5049810;28;20922;-84
2022/12/18 00:17:56;;;;;;;65.95;37.75;;;;;;;;;;5032244;28;20384;-84
2022/12/18 00:20:25;;;;;;;66.22;37.65;;;;;;;;;;5049976;28;20743;-83
2022/12/18 00:22:51;;;;;;;67.50;38.03;;;;;;;;;;5049839;28;20381;-84
2022/12/18 00:25:17;;;;;;;65.97;37.17;;;;;;;;;;5049003;28;20559;-84
2022/12/18 00:27:43;;;;;;;62.10;36.53;;;;;;;;;;5051372;28;20933;-84
2022/12/18 00:30:10;;;;;;;68.60;38.58;;;;;;;;;;5051794;28;20385;-84
2022/12/18 00:32:36;;;;;;;66.00;38.20;;;;;;;;;;5051840;28;20417;-84
2022/12/18 00:35:02;;;;;;;64.45;37.05;;;;;;;;;;5051849;28;20388;-84
2022/12/18 00:37:28;;;;;;;68.60;38.25;;;;;;;;;;5051955;28;20370;-84
2022/12/18 00:39:54;;;;;;;67.85;38.05;;;;;;;;;;5051749;28;20867;-84
2022/12/18 00:45:05;;;;;;;62.95;37.10;;;;;;;;;;5051860;28;20885;-83
2022/12/18 00:47:31;;;;;;;66.25;38.00;;;;;;;;;;5051825;28;20399;-84
2022/12/18 00:49:57;;;;;;;70.47;38.92;;;;;;;;;;5051671;28;20902;-84
2022/12/18 00:52:23;;;;;;;69.07;38.45;;;;;;;;;;5051619;28;20401;-84
2022/12/18 00:54:49;;;;;;;70.93;39.43;;;;;;;;;;5050064;28;20412;-84
2022/12/18 00:57:15;;;;;;;70.35;39.10;;;;;;;;;;5051574;28;20392;-84
2022/12/18 00:59:41;;;;;;;69.10;38.05;;;;;;;;;;5051293;28;20401;-84
2022/12/18 01:02:07;;;;;;;71.50;38.70;;;;;;;;;;5050560;28;20465;-84
2022/12/18 01:04:33;;;;;;;70.72;38.90;;;;;;;;;;5050482;28;20381;-84
2022/12/18 01:06:59;;;;;;;70.90;38.63;;;;;;;;;;5051129;28;20438;-84
2022/12/18 01:09:25;;;;;;;69.07;38.85;;;;;;;;;;5051020;28;20468;-84
2022/12/18 01:11:52;;;;;;;69.07;38.13;;;;;;;;;;5051153;28;20496;-84
2022/12/18 01:14:18;;;;;;;67.05;38.30;;;;;;;;;;5051427;28;20396;-84
2022/12/18 01:16:44;;;;;;;72.70;40.07;;;;;;;;;;5051465;28;20385;-84
2022/12/18 01:19:10;;;;;;;70.65;38.67;;;;;;;;;;5045619;28;20378;-84
2022/12/18 01:21:36;;;;;;;74.73;41.17;;;;;;;;;;5050987;28;20457;-84
2022/12/18 01:24:02;;;;;;;73.88;40.70;;;;;;;;;;5051416;28;20381;-84
2022/12/18 01:26:29;;;;;;;72.60;40.37;;;;;;;;;;5051595;28;20471;-84
2022/12/18 01:28:56;;;;;;;74.72;40.38;;;;;;;;;;5054622;28;20388;-84
2022/12/18 01:31:27;;;;;;;76.80;41.97;;;;;;;;;;5054252;28;20467;-84
2022/12/18 01:33:53;;;;;;;75.03;41.28;;;;;;;;;;5046232;28;20377;-84
2022/12/18 01:36:20;;;;;;;80.60;42.55;;;;;;;;;;5054893;28;20390;-84
2022/12/18 01:38:47;;;;;;;78.13;42.13;;;;;;;;;;5055239;28;20412;-84
2022/12/18 01:41:13;;;;;;;74.20;40.78;;;;;;;;;;5055261;28;20382;-84
2022/12/18 01:43:43;;;;;;;73.63;40.05;;;;;;;;;;5055080;28;20801;-84
2022/12/18 01:46:09;;;;;;;71.70;39.47;;;;;;;;;;5055151;28;20377;-84
2022/12/18 01:48:35;;;;;;;71.97;39.67;;;;;;;;;;5055039;28;20392;-84
2022/12/18 01:51:01;;;;;;;76.50;40.35;;;;;;;;;;5055043;28;20381;-84
2022/12/18 01:53:28;;;;;;;76.68;41.47;;;;;;;;;;5054942;28;20484;-84
2022/12/18 01:55:56;;;;;;;75.97;40.80;;;;;;;;;;5054861;28;20382;-84
2022/12/18 01:58:29;;;;;;;80.50;43.22;;;;;;;;;;5054894;28;20415;-84
2022/12/18 02:00:55;;;;;;;79.22;42.13;;;;;;;;;;5054577;28;20413;-84
2022/12/18 02:03:21;;;;;;;76.18;41.97;;;;;;;;;;5062959;28;20426;-84
2022/12/18 02:05:50;;;;;;;77.88;42.28;;;;;;;;;;5065536;28;20383;-85
2022/12/18 02:08:37;;;;;;;80.45;42.50;;;;;;;;;;5072501;28;21010;-83
2022/12/18 02:11:26;;;;;;;76.88;41.75;;;;;;;;;;5047883;28;21059;-84
2022/12/18 02:14:15;;;;;;;78.57;41.30;;;;;;;;;;5052902;28;20399;-84
2022/12/18 02:16:52;;;;;;;78.68;42.83;;;;;;;;;;5041435;28;20380;-84
2022/12/18 02:19:20;;;;;;;78.68;41.88;;;;;;;;;;5054386;28;20382;-84
2022/12/18 02:21:51;;;;;;;78.93;42.22;;;;;;;;;;5054431;28;20414;-84
2022/12/18 02:24:45;;;;;;;79.38;42.72;;;;;;;;;;5054402;28;20385;-84
2022/12/18 02:27:11;;;;;;;81.13;42.53;;;;;;;;;;5036448;28;20850;-84
2022/12/18 02:29:44;;;;;;;80.72;42.28;;;;;;;;;;5053911;28;20386;-84
2022/12/18 02:32:13;;;;;;;83.30;43.92;;;;;;;;;;5043262;28;20445;-83
2022/12/18 02:34:40;;;;;;;82.03;42.90;;;;;;;;;;5020253;28;20395;-84
2022/12/18 02:37:08;;;;;;;77.95;42.28;;;;;;;;;;5052774;28;20435;-84
2022/12/18 02:39:36;;;;;;;74.55;41.47;;;;;;;;;;5053287;28;20787;-84
2022/12/18 02:42:07;;;;;;;75.97;41.33;;;;;;;;;;5054040;28;20778;-84
2022/12/18 02:44:33;;;;;;;74.20;41.17;;;;;;;;;;5054018;28;20874;-84
2022/12/18 02:46:59;;;;;;;72.85;39.10;;;;;;;;;;5053202;28;20377;-84
2022/12/18 02:49:37;;;;;;;73.30;40.37;;;;;;;;;;5053297;28;20480;-84
2022/12/18 02:52:18;;;;;;;71.53;39.17;;;;;;;;;;5053744;28;20414;-83
2022/12/18 02:54:44;;;;;;;72.05;39.42;;;;;;;;;;5053554;28;20371;-84
2022/12/18 02:57:24;;;;;;;72.30;39.92;;;;;;;;;;5046907;28;20411;-84
2022/12/18 02:59:56;;;;;;;76.93;39.92;;;;;;;;;;5053486;28;20504;-84
2022/12/18 03:02:26;;;;;;;74.18;40.53;;;;;;;;;;5053593;28;20476;-84
2022/12/18 03:05:16;;;;;;;75.20;40.42;;;;;;;;;;5052646;28;20404;-84
2022/12/18 03:07:44;;;;;;;72.00;40.22;;;;;;;;;;5053149;28;20380;-84
2022/12/18 03:10:12;;;;;;;77.80;41.00;;;;;;;;;;5053081;28;20455;-84
2022/12/18 03:12:41;;;;;;;74.28;40.00;;;;;;;;;;5052871;28;20409;-85
2022/12/18 03:15:11;;;;;;;73.00;40.00;;;;;;;;;;5053238;28;20377;-84
2022/12/18 03:17:39;;;;;;;69.97;38.30;;;;;;;;;;5053426;28;20377;-84
2022/12/18 03:20:14;;;;;;;72.15;39.72;;;;;;;;;;5053226;28;20374;-84
2022/12/18 03:22:43;;;;;;;72.78;39.55;;;;;;;;;;5053238;28;20402;-84
2022/12/18 03:25:11;;;;;;;75.20;40.43;;;;;;;;;;5053287;28;20382;-84
2022/12/18 03:27:39;;;;;;;75.90;40.05;;;;;;;;;;5053289;28;20396;-84
2022/12/18 03:30:07;;;;;;;73.90;40.15;;;;;;;;;;5044319;28;20392;-84
2022/12/18 03:32:54;;;;;;;78.15;41.13;;;;;;;;;;5053141;28;20402;-84
2022/12/18 03:35:23;;;;;;;77.30;40.60;;;;;;;;;;5052976;28;20412;-84
2022/12/18 03:37:49;;;;;;;77.25;41.75;;;;;;;;;;5049152;28;20381;-84
2022/12/18 03:40:15;;;;;;;79.50;42.75;;;;;;;;;;5052894;28;20381;-84
2022/12/18 03:42:47;;;;;;;74.22;40.88;;;;;;;;;;5052920;28;20443;-84
2022/12/18 03:45:18;;;;;;;80.32;41.17;;;;;;;;;;5052828;28;20412;-84
2022/12/18 03:47:47;;;;;;;77.77;40.73;;;;;;;;;;5052838;28;20429;-84
2022/12/18 03:50:15;;;;;;;72.05;39.58;;;;;;;;;;5052072;28;20381;-84
2022/12/18 03:52:45;;;;;;;74.07;39.93;;;;;;;;;;5052667;28;20397;-84
2022/12/18 03:55:11;;;;;;;72.60;39.15;;;;;;;;;;5052724;28;20782;-84
2022/12/18 03:57:38;;;;;;;72.45;39.97;;;;;;;;;;5052572;28;20400;-84
2022/12/18 04:00:06;;;;;;;69.22;38.97;;;;;;;;;;5052429;28;20448;-84
2022/12/18 04:02:32;;;;;;;72.15;38.35;;;;;;;;;;5052518;28;20378;-84
2022/12/18 04:05:00;;;;;;;67.18;37.40;;;;;;;;;;5051892;28;20439;-84
2022/12/18 04:07:26;;;;;;;65.03;36.50;;;;;;;;;;5048677;28;20734;-84
2022/12/18 04:09:54;;;;;;;67.85;36.55;;;;;;;;;;5041141;28;21010;-82
2022/12/18 04:12:20;;;;;;;64.95;36.17;;;;;;;;;;5037217;28;20411;-83
2022/12/18 04:14:46;;;;;;;63.22;36.03;;;;;;;;;;5044803;28;20387;-83
2022/12/18 04:17:12;;;;;;;63.08;35.92;;;;;;;;;;5032486;28;20418;-83
2022/12/18 04:19:38;;;;;;;64.30;36.95;;;;;;;;;;5032864;28;20759;-83
2022/12/18 04:22:04;;;;;;;62.97;35.85;;;;;;;;;;5040578;28;20392;-83
2022/12/18 04:24:30;;;;;;;62.70;36.17;;;;;;;;;;5036772;28;20415;-84
2022/12/18 04:26:56;;;;;;;59.75;34.88;;;;;;;;;;5048368;28;20417;-83
2022/12/18 04:29:22;;;;;;;68.63;37.25;;;;;;;;;;5050993;28;20973;-83
2022/12/18 04:31:48;;;;;;;65.60;36.10;;;;;;;;;;5036462;28;20437;-83
2022/12/18 04:34:14;;;;;;;64.22;35.85;;;;;;;;;;5033687;28;20385;-83
2022/12/18 04:36:40;;;;;;;63.55;35.70;;;;;;;;;;5035115;28;20381;-83
2022/12/18 04:39:06;;;;;;;64.63;35.20;;;;;;;;;;5032488;28;20407;-83
2022/12/18 04:41:31;;;;;;;63.80;35.63;;;;;;;;;;5033526;28;20380;-84
2022/12/18 04:44:21;;;;;;;63.40;36.00;;;;;;;;;;5032129;28;20872;-85
2022/12/18 04:46:47;;;;;;;61.97;34.92;;;;;;;;;;5015662;28;20741;-84
2022/12/18 04:49:14;;;;;;;64.03;35.33;;;;;;;;;;5044109;28;20389;-86
2022/12/18 04:51:43;;;;;;;64.00;36.10;;;;;;;;;;5032311;28;20397;-85
2022/12/18 04:54:09;;;;;;;66.20;35.38;;;;;;;;;;5050577;28;20373;-83
2022/12/18 04:56:34;;;;;;;61.80;34.47;;;;;;;;;;5047598;28;20874;-84
2022/12/18 04:59:00;;;;;;;62.28;36.22;;;;;;;;;;5050184;28;20378;-84
2022/12/18 05:01:27;;;;;;;64.90;35.47;;;;;;;;;;5050566;28;20464;-85
2022/12/18 05:03:53;;;;;;;64.18;35.88;;;;;;;;;;5051100;28;20485;-84
2022/12/18 05:06:19;;;;;;;60.55;34.20;;;;;;;;;;5051758;28;20389;-82
2022/12/18 05:08:45;;;;;;;72.70;39.80;;;;;;;;;;5051407;28;20373;-82
2022/12/18 05:11:15;;;;;;;65.00;36.15;;;;;;;;;;5051715;28;20448;-82
2022/12/18 05:13:41;;;;;;;59.60;34.20;;;;;;;;;;5051461;28;20386;-82
2022/12/18 05:16:07;;;;;;;61.25;35.33;;;;;;;;;;5051274;28;20377;-82
2022/12/18 05:18:33;;;;;;;62.67;34.40;;;;;;;;;;5051289;28;20460;-82
2022/12/18 05:20:59;;;;;;;56.60;32.50;;;;;;;;;;5047457;28;20385;-83
2022/12/18 05:23:25;;;;;;;61.45;34.40;;;;;;;;;;5051309;28;20384;-83
2022/12/18 05:25:59;;;;;;;60.00;34.20;;;;;;;;;;5042056;28;20391;-83
2022/12/18 05:28:26;;;;;;;60.30;34.47;;;;;;;;;;5022330;28;20389;-83
2022/12/18 05:30:53;;;;;;;59.67;33.25;;;;;;;;;;5042269;28;20492;-82
2022/12/18 05:33:20;;;;;;;58.20;33.35;;;;;;;;;;5050235;28;20406;-82
2022/12/18 05:35:50;;;;;;;57.85;33.17;;;;;;;;;;5050928;28;20378;-83
2022/12/18 05:38:16;;;;;;;58.85;33.45;;;;;;;;;;5050328;28;20382;-83
2022/12/18 05:40:43;;;;;;;55.93;31.97;;;;;;;;;;5051127;28;20447;-82
2022/12/18 05:43:09;;;;;;;59.85;33.70;;;;;;;;;;5051033;28;20398;-82
2022/12/18 05:45:37;;;;;;;57.53;32.60;;;;;;;;;;5046596;28;20834;-82
2022/12/18 05:48:04;;;;;;;57.72;33.25;;;;;;;;;;5052614;28;20389;-82
2022/12/18 05:50:30;;;;;;;59.60;33.67;;;;;;;;;;5051344;28;20933;-83
2022/12/18 05:52:56;;;;;;;57.85;33.55;;;;;;;;;;5050937;28;20410;-83
2022/12/18 05:55:22;;;;;;;59.80;34.00;;;;;;;;;;5051018;28;20396;-83
2022/12/18 05:57:48;;;;;;;60.10;33.80;;;;;;;;;;5051177;28;20454;-83
2022/12/18 06:00:14;;;;;;;62.10;34.85;;;;;;;;;;5050768;28;20397;-83
2022/12/18 06:02:40;;;;;;;57.75;33.30;;;;;;;;;;5050922;28;20381;-83
2022/12/18 06:05:06;;;;;;;60.92;34.00;;;;;;;;;;5050976;28;20396;-83
2022/12/18 06:07:32;;;;;;;62.72;34.80;;;;;;;;;;5050931;28;20412;-83
2022/12/18 06:09:58;;;;;;;59.13;33.87;;;;;;;;;;5047335;28;20389;-83
2022/12/18 06:12:24;;;;;;;60.80;33.95;;;;;;;;;;5050789;28;20558;-83
2022/12/18 06:14:50;;;;;;;59.15;33.15;;;;;;;;;;5053692;28;20464;-83
2022/12/18 06:17:16;;;;;;;62.78;34.35;;;;;;;;;;5054559;28;20420;-83
2022/12/18 06:19:42;;;;;;;56.00;31.83;;;;;;;;;;5054353;28;20382;-83
2022/12/18 06:22:08;;;;;;;59.97;33.10;;;;;;;;;;5054413;28;20866;-83
2022/12/18 06:24:34;;;;;;;53.83;31.37;;;;;;;;;;5053685;28;20443;-83
2022/12/18 06:27:00;;;;;;;60.95;32.67;;;;;;;;;;5052793;28;20404;-83
2022/12/18 06:29:26;;;;;;;60.53;33.63;;;;;;;;;;5052115;28;20385;-84
2022/12/18 06:31:52;;;;;;;57.38;31.90;;;;;;;;;;5053613;28;20462;-83
2022/12/18 06:34:18;;;;;;;55.25;30.58;;;;;;;;;;5053827;28;20871;-83
2022/12/18 06:36:44;;;;;;;54.67;31.25;;;;;;;;;;5053321;28;20461;-83
2022/12/18 06:39:09;;;;;;;55.13;31.10;;;;;;;;;;5035575;28;20389;-82
2022/12/18 06:41:35;;;;;;;57.13;32.38;;;;;;;;;;5051531;28;20421;-83
2022/12/18 06:44:01;;;;;;;56.10;32.83;;;;;;;;;;5044457;28;20458;-83
2022/12/18 06:46:27;;;;;;;56.38;32.25;;;;;;;;;;5053905;28;20378;-83
2022/12/18 06:48:53;;;;;;;58.60;33.33;;;;;;;;;;5053318;28;20932;-82
2022/12/18 06:51:23;;;;;;;58.97;33.47;;;;;;;;;;5051125;28;20382;-85
2022/12/18 06:53:50;;;;;;;59.80;32.15;;;;;;;;;;5053829;28;20369;-84
2022/12/18 06:56:16;;;;;;;62.20;33.30;;;;;;;;;;5042432;28;20394;-83
2022/12/18 06:58:42;;;;;;;60.00;33.30;;;;;;;;;;5053218;28;20403;-83
2022/12/18 07:01:10;;;;;;;59.70;33.33;;;;;;;;;;5049002;28;20494;-85
2022/12/18 07:03:36;;;;;;;59.78;34.30;;;;;;;;;;5038413;28;20787;-82
2022/12/18 07:06:02;;;;;;;61.72;33.80;;;;;;;;;;5038505;28;20408;-84
2022/12/18 07:08:29;;;;;;;57.60;32.50;;;;;;;;;;5051999;28;20389;-82
2022/12/18 07:10:55;;;;;;;53.72;31.42;;;;;;;;;;5050299;28;20445;-83
2022/12/18 07:13:21;;;;;;;60.95;33.47;;;;;;;;;;5049025;28;20411;-83
2022/12/18 07:15:47;;;;;;;59.90;33.47;;;;;;;;;;5046457;28;20370;-83
2022/12/18 07:18:13;;;;;;;57.67;33.80;;;;;;;;;;5052656;28;20466;-82
2022/12/18 07:20:39;;;;;;;61.53;34.63;;;;;;;;;;5052906;28;20443;-83
2022/12/18 07:23:05;;;;;;;58.65;33.50;;;;;;;;;;5053263;28;20392;-84
2022/12/18 07:25:34;;;;;;;57.70;33.70;;;;;;;;;;5046248;28;20386;-83
2022/12/18 07:28:00;;;;;;;56.28;33.10;;;;;;;;;;5049532;28;20381;-83
2022/12/18 07:30:26;;;;;;;59.33;33.33;;;;;;;;;;5053042;28;20485;-83
2022/12/18 07:32:52;;;;;;;61.65;34.20;;;;;;;;;;5035101;28;20408;-83
2022/12/18 07:35:18;;;;;;;59.73;34.27;;;;;;;;;;5054753;28;20825;-84
2022/12/18 07:37:45;;;;;;;62.63;34.63;;;;;;;;;;5055803;28;20966;-83
2022/12/18 07:40:11;;;;;;;63.58;34.40;;;;;;;;;;5047473;28;20382;-83
2022/12/18 07:42:37;;;;;;;61.47;33.70;;;;;;;;;;5052904;28;20862;-84
2022/12/18 07:45:04;;;;;;;62.75;33.83;;;;;;;;;;5051553;28;20443;-82
2022/12/18 07:47:32;;;;;;;60.05;34.10;;;;;;;;;;5052334;28;20874;-82
2022/12/18 07:49:58;;;;;;;60.42;34.50;;;;;;;;;;5052190;28;20374;-85
2022/12/18 07:52:24;;;;;;;59.50;33.78;;;;;;;;;;5051057;28;20463;-84
2022/12/18 07:54:50;;;;;;;62.25;34.80;;;;;;;;;;5038029;28;20374;-84
2022/12/18 07:57:17;;;;;;;59.53;33.03;;;;;;;;;;5038145;28;20381;-84
2022/12/18 07:59:43;;;;;;;61.92;34.83;;;;;;;;;;5046943;28;20407;-82
2022/12/18 08:02:09;;;;;;;62.88;33.97;;;;;;;;;;5045574;28;20396;-84
2022/12/18 08:04:35;;;;;;;63.10;34.72;;;;;;;;;;5051942;28;20460;-84
2022/12/18 08:07:01;;;;;;;58.30;33.33;;;;;;;;;;5052415;28;20859;-84
2022/12/18 08:09:27;;;;;;;63.20;34.47;;;;;;;;;;5052336;28;20416;-84
2022/12/18 08:11:54;;;;;;;61.83;34.28;;;;;;;;;;5052270;28;20416;-85
2022/12/18 08:14:19;;;;;;;57.90;33.27;;;;;;;;;;5050968;28;20435;-84
2022/12/18 08:16:45;;;;;;;60.25;33.22;;;;;;;;;;5042153;28;20785;-85
2022/12/18 08:19:12;;;;;;;61.58;34.35;;;;;;;;;;5037471;28;20383;-84
2022/12/18 08:21:41;;;;;;;61.13;34.25;;;;;;;;;;5051133;28;20484;-85
2022/12/18 08:24:07;;;;;;;58.67;34.17;;;;;;;;;;5051199;28;20714;-85
2022/12/18 08:26:33;;;;;;;62.47;35.05;;;;;;;;;;5049402;28;20870;-85
2022/12/18 08:29:00;;;;;;;61.92;34.67;;;;;;;;;;5040931;28;20383;-84
2022/12/18 08:31:26;;;;;;;62.28;35.00;;;;;;;;;;5021496;28;20469;-84
2022/12/18 08:33:53;;;;;;;70.90;39.83;;;;;;;;;;5052053;28;20381;-84
2022/12/18 08:36:19;;;;;;;60.73;33.53;;;;;;;;;;5051586;28;20451;-83
2022/12/18 08:38:46;;;;;;;60.33;33.50;;;;;;;;;;5051018;28;20385;-84
2022/12/18 08:41:13;;;;;;;60.15;33.67;;;;;;;;;;5051175;28;20393;-84
2022/12/18 08:46:25;;;;;;;58.75;33.70;;;;;;;;;;5051505;28;20385;-84
2022/12/18 08:48:51;;;;;;;65.03;38.38;;;;;;;;;;5051488;28;20908;-84
2022/12/18 08:51:17;;;;;;;61.88;35.13;;;;;;;;;;5050230;28;20377;-83
2022/12/18 08:53:44;;;;;;;58.30;33.55;;;;;;;;;;5047495;28;20927;-83
2022/12/18 08:56:10;;;;;;;60.55;33.72;;;;;;;;;;5050918;28;20384;-84
2022/12/18 08:58:36;;;;;;;66.35;35.45;;;;;;;;;;5050299;28;20374;-84
2022/12/18 09:01:03;;;;;;;59.30;33.72;;;;;;;;;;5050727;28;20468;-84
2022/12/18 09:03:29;;;;;;;60.10;33.92;;;;;;;;;;5043203;28;20400;-84
2022/12/18 09:05:55;;;;;;;60.15;34.97;;;;;;;;;;5057973;28;20384;-84
2022/12/18 09:08:21;;;;;;;60.73;35.10;;;;;;;;;;5063234;28;20385;-85
2022/12/18 09:10:49;;;;;;;58.60;33.70;;;;;;;;;;5055341;28;20385;-84
2022/12/18 09:13:15;;;;;;;57.20;33.08;;;;;;;;;;5050965;28;20428;-83
2022/12/18 09:15:45;;;;;;;60.90;34.70;;;;;;;;;;5050684;28;20460;-84
2022/12/18 09:18:12;;;;;;;60.10;34.90;;;;;;;;;;5050923;28;20380;-84
2022/12/18 09:20:38;;;;;;;62.92;37.08;;;;;;;;;;5050314;28;20385;-84
2022/12/18 09:23:05;;;;;;;61.13;35.83;;;;;;;;;;5051056;28;20739;-84
2022/12/18 09:25:32;;;;;;;60.33;33.78;;;;;;;;;;5050204;28;20952;-84
2022/12/18 09:27:59;;;;;;;58.55;33.13;;;;;;;;;;5046478;28;20382;-84
2022/12/18 09:30:26;;;;;;;57.13;33.13;;;;;;;;;;5046760;28;20405;-83
2022/12/18 09:32:54;;;;;;;62.00;34.25;;;;;;;;;;5048960;28;20558;-84
2022/12/18 09:35:20;;;;;;;58.90;33.70;;;;;;;;;;5049292;28;20785;-85
2022/12/18 09:37:47;;;;;;;58.08;33.95;;;;;;;;;;5049049;28;20380;-86
2022/12/18 09:40:19;;;;;;;57.70;33.40;;;;;;;;;;5049382;28;21001;-84
2022/12/18 09:42:48;;;;;;;61.55;35.80;;;;;;;;;;5041316;28;20498;-84
2022/12/18 09:45:15;;;;;;;61.72;35.05;;;;;;;;;;5047521;28;20451;-84
2022/12/18 09:47:41;;;;;;;61.05;35.05;;;;;;;;;;5032033;28;20378;-85
2022/12/18 09:50:18;;;;;;;56.33;33.38;;;;;;;;;;5053330;28;20389;-85
2022/12/18 09:52:52;;;;;;;59.00;33.00;;;;;;;;;;5053412;28;20405;-85
2022/12/18 09:55:38;;;;;;;61.08;35.10;;;;;;;;;;5053728;28;20382;-85
2022/12/18 09:58:12;;;;;;;59.38;33.65;;;;;;;;;;5052643;28;20373;-84
2022/12/18 10:00:38;;;;;;;59.08;34.20;;;;;;;;;;5053389;28;20438;-84
2022/12/18 10:03:15;;;;;;;59.13;33.40;;;;;;;;;;5052905;28;20396;-85
2022/12/18 10:05:41;;;;;;;58.65;34.72;;;;;;;;;;5054370;28;20386;-84
2022/12/18 10:08:22;;;;;;;59.35;34.25;;;;;;;;;;5053070;28;20385;-83
2022/12/18 10:10:56;;;;;;;59.40;34.65;;;;;;;;;;5051179;28;20447;-83
2022/12/18 10:13:22;;;;;;;62.97;35.25;;;;;;;;;;5053110;28;20488;-83
2022/12/18 10:15:55;;;;;;;58.75;34.25;;;;;;;;;;5047884;28;20476;-83
2022/12/18 10:18:27;;;;;;;64.47;36.83;;;;;;;;;;5053548;28;20990;-83
2022/12/18 10:20:55;;;;;;;67.77;36.90;;;;;;;;;;5053091;28;20776;-83
2022/12/18 10:23:31;;;;;;;65.25;36.30;;;;;;;;;;5054079;28;20381;-85
2022/12/18 10:26:05;;;;;;;68.57;37.17;;;;;;;;;;5053930;28;20447;-83
2022/12/18 10:28:33;;;;;;;65.60;36.28;;;;;;;;;;5053855;28;20378;-84
2022/12/18 10:30:59;;;;;;;67.78;37.63;;;;;;;;;;5053574;28;20455;-83
2022/12/18 10:33:28;;;;;;;70.18;37.60;;;;;;;;;;5053971;28;20412;-85
2022/12/18 10:35:54;;;;;;;68.07;36.73;;;;;;;;;;5049720;28;20476;-85
2022/12/18 10:38:22;;;;;;;63.20;35.57;;;;;;;;;;5051338;28;20381;-83
2022/12/18 10:40:48;;;;;;;66.32;36.75;;;;;;;;;;5053870;28;20388;-85
2022/12/18 10:43:15;;;;;;;63.05;35.50;;;;;;;;;;5053981;28;20381;-84
2022/12/18 10:45:42;;;;;;;60.60;35.10;;;;;;;;;;5053818;28;20439;-84
2022/12/18 10:48:21;;;;;;;59.58;34.67;;;;;;;;;;5053789;28;20389;-83
2022/12/18 10:50:49;;;;;;;67.53;36.65;;;;;;;;;;5053612;28;20378;-83
2022/12/18 10:53:20;;;;;;;64.10;35.95;;;;;;;;;;5047071;28;20432;-81
2022/12/18 10:55:47;;;;;;;68.00;38.35;;;;;;;;;;5052300;28;20393;-81
2022/12/18 10:58:21;;;;;;;68.20;38.05;;;;;;;;;;5052468;28;20374;-81
2022/12/18 11:01:01;;;;;;;66.33;36.70;;;;;;;;;;5058693;28;20472;-81
2022/12/18 11:03:40;;;;;;;79.40;44.37;;;;;;;;;;5038563;28;20453;-81
2022/12/18 11:06:08;;;;;;;66.10;37.23;;;;;;;;;;5053652;28;20393;-81
2022/12/18 11:08:34;;;;;;;69.60;38.15;;;;;;;;;;5053671;28;20448;-81
2022/12/18 11:11:00;;;;;;;66.18;37.50;;;;;;;;;;5053582;28;20381;-82
2022/12/18 11:13:27;;;;;;;75.28;40.10;;;;;;;;;;5053497;28;20397;-82
2022/12/18 11:15:53;;;;;;;76.95;41.45;;;;;;;;;;5053413;28;20388;-82
2022/12/18 11:18:30;;;;;;;69.53;38.23;;;;;;;;;;5052386;28;20389;-83
2022/12/18 11:20:59;;;;;;;72.68;40.22;;;;;;;;;;5051921;28;20798;-83
2022/12/18 11:23:25;;;;;;;67.15;37.72;;;;;;;;;;5051101;28;20457;-84
2022/12/18 11:25:56;;;;;;;65.82;36.60;;;;;;;;;;5034887;28;20424;-84
2022/12/18 11:28:25;;;;;;;63.53;36.22;;;;;;;;;;5052913;28;20413;-84
2022/12/18 11:31:08;;;;;;;63.50;36.08;;;;;;;;;;5053169;28;20874;-83
2022/12/18 11:33:34;;;;;;;72.95;40.28;;;;;;;;;;5036993;28;20407;-83
2022/12/18 11:36:03;;;;;;;83.93;42.17;;;;;;;;;;5045423;28;20377;-84
2022/12/18 11:38:31;;;;;;;79.68;41.17;;;;;;;;;;5053057;28;20377;-84
2022/12/18 11:40:57;;;;;;;73.03;38.77;;;;;;;;;;5053017;28;20385;-84
2022/12/18 11:43:32;;;;;;;74.93;39.72;;;;;;;;;;5052991;28;20494;-85
2022/12/18 11:46:10;;;;;;;73.68;40.42;;;;;;;;;;5052940;28;20863;-85
2022/12/18 11:48:44;;;;;;;68.75;38.78;;;;;;;;;;5052921;28;20382;-85
2022/12/18 11:51:14;;;;;;;70.33;38.33;;;;;;;;;;5052878;28;20417;-84
2022/12/18 11:53:40;;;;;;;63.78;36.13;;;;;;;;;;5052697;28;20417;-84
2022/12/18 11:56:20;;;;;;;60.75;35.40;;;;;;;;;;5052670;28;20381;-83
2022/12/18 11:58:55;;;;;;;59.08;33.80;;;;;;;;;;5052460;28;20712;-83
2022/12/18 12:01:27;;;;;;;63.40;36.67;;;;;;;;;;5052603;28;20390;-84
2022/12/18 12:04:04;;;;;;;62.00;35.72;;;;;;;;;;5052284;28;20381;-83
2022/12/18 12:06:36;;;;;;;65.65;36.30;;;;;;;;;;5052534;28;20875;-85
2022/12/18 12:09:09;;;;;;;63.67;37.28;;;;;;;;;;5052356;28;20955;-85
2022/12/18 12:12:04;;;;;;;64.85;36.25;;;;;;;;;;5051919;28;20884;-84
2022/12/18 12:14:41;;;;;;;64.88;36.92;;;;;;;;;;5018934;28;20386;-83
2022/12/18 12:17:26;;;;;;;63.42;36.55;;;;;;;;;;5052347;28;20889;-83
2022/12/18 12:19:58;;;;;;;62.08;36.20;;;;;;;;;;5044586;28;20461;-83
2022/12/18 12:22:41;;;;;;;63.23;36.83;;;;;;;;;;5037711;28;20414;-83
2022/12/18 12:25:26;;;;;;;61.35;35.55;;;;;;;;;;5034766;28;20385;-83
2022/12/18 12:28:11;;;;;;;62.80;35.77;;;;;;;;;;5047389;28;20738;-83
2022/12/18 12:30:37;;;;;;;63.03;35.90;;;;;;;;;;5050150;28;20385;-84
2022/12/18 12:33:24;;;;;;;62.80;36.23;;;;;;;;;;5051990;28;20411;-83
2022/12/18 12:35:55;;;;;;;60.47;36.20;;;;;;;;;;5051718;28;20405;-84
2022/12/18 12:38:27;;;;;;;60.45;35.63;;;;;;;;;;5051952;28;20384;-83
2022/12/18 12:40:57;;;;;;;59.10;34.88;;;;;;;;;;5051838;28;20382;-84
2022/12/18 12:43:41;;;;;;;61.25;36.65;;;;;;;;;;5043350;28;20484;-84
2022/12/18 12:46:09;;;;;;;58.63;34.83;;;;;;;;;;5051170;28;20443;-83
2022/12/18 12:48:47;;;;;;;62.27;36.57;;;;;;;;;;5051728;28;20474;-84
2022/12/18 12:51:19;;;;;;;61.30;35.08;;;;;;;;;;5051742;28;20857;-83
2022/12/18 12:53:45;;;;;;;55.78;33.08;;;;;;;;;;5051876;28;20410;-83
2022/12/18 12:56:13;;;;;;;55.13;33.25;;;;;;;;;;5051666;28;20397;-83
2022/12/18 12:58:39;;;;;;;54.25;32.85;;;;;;;;;;5051665;28;20514;-83
2022/12/18 13:01:10;;;;;;;65.28;37.17;;;;;;;;;;5049631;28;20407;-84
2022/12/18 13:03:45;;;;;;;65.90;36.88;;;;;;;;;;5043132;28;20467;-83
2022/12/18 13:06:18;;;;;;;71.38;39.47;;;;;;;;;;5051191;28;20393;-83
2022/12/18 13:08:55;;;;;;;66.72;36.85;;;;;;;;;;5051491;28;20435;-83
2022/12/18 13:14:22;;;;;;;65.03;37.35;;;;;;;;;;5051170;28;20393;-83
2022/12/18 13:16:48;;;;;;;64.50;35.95;;;;;;;;;;5050403;28;20531;-83
2022/12/18 13:19:22;;;;;;;62.03;35.10;;;;;;;;;;5050675;28;20903;-83
2022/12/18 13:21:53;;;;;;;60.63;35.35;;;;;;;;;;5051390;28;20938;-83
2022/12/18 13:24:26;;;;;;;56.47;34.33;;;;;;;;;;5053740;28;20366;-83
2022/12/18 13:26:52;;;;;;;58.83;35.53;;;;;;;;;;5055546;28;20370;-83
2022/12/18 13:29:40;;;;;;;61.35;35.70;;;;;;;;;;5055347;28;20373;-84
2022/12/18 13:32:25;;;;;;;61.22;35.70;;;;;;;;;;5050709;28;20406;-84
2022/12/18 13:35:23;;;;;;;59.08;33.85;;;;;;;;;;5035085;28;20776;-83
2022/12/18 13:37:53;;;;;;;59.28;35.45;;;;;;;;;;4992139;28;20449;-83
2022/12/18 13:40:48;;;;;;;64.78;37.50;;;;;;;;;;5037098;28;20393;-84
2022/12/18 13:43:20;;;;;;;66.00;37.33;;;;;;;;;;5050975;28;20451;-83
2022/12/18 13:46:00;;;;;;;71.50;38.03;;;;;;;;;;5035528;28;20447;-84
2022/12/18 13:48:27;;;;;;;82.70;43.22;;;;;;;;;;5053374;28;20450;-84
2022/12/18 13:51:01;;;;;;;75.47;40.20;;;;;;;;;;5053248;28;20431;-84
2022/12/18 13:53:30;;;;;;;72.43;39.30;;;;;;;;;;5053236;28;20952;-84
2022/12/18 13:55:56;;;;;;;70.32;38.35;;;;;;;;;;5053269;28;20851;-84
2022/12/18 13:58:22;;;;;;;65.20;36.55;;;;;;;;;;5053249;28;20369;-84
2022/12/18 14:00:48;;;;;;;58.58;34.92;;;;;;;;;;5054232;28;20447;-84
2022/12/18 14:03:22;;;;;;;59.10;34.45;;;;;;;;;;5054861;28;20384;-84
2022/12/18 14:05:53;;;;;;;65.45;37.55;;;;;;;;;;5054773;28;20474;-84
2022/12/18 14:08:19;;;;;;;62.08;35.50;;;;;;;;;;5054904;28;20389;-84
2022/12/18 14:10:47;;;;;;;62.50;36.22;;;;;;;;;;5054649;28;20381;-85
2022/12/18 14:13:17;;;;;;;60.38;35.45;;;;;;;;;;5054694;28;20402;-84
2022/12/18 14:15:44;;;;;;;71.00;38.30;;;;;;;;;;5054713;28;20460;-84
2022/12/18 14:18:10;;;;;;;65.43;36.15;;;;;;;;;;5054645;28;20376;-84
2022/12/18 14:20:37;;;;;;;72.55;39.47;;;;;;;;;;5045698;28;20379;-84
2022/12/18 14:23:03;;;;;;;61.15;35.38;;;;;;;;;;5049122;28;20409;-84
2022/12/18 14:25:30;;;;;;;64.05;36.13;;;;;;;;;;5054490;28;20385;-84
2022/12/18 14:27:56;;;;;;;64.80;37.97;;;;;;;;;;5054458;28;20409;-84
2022/12/18 14:30:30;;;;;;;64.38;36.53;;;;;;;;;;5054292;28;20440;-84
2022/12/18 14:33:00;;;;;;;59.83;35.38;;;;;;;;;;5054188;28;20401;-84
2022/12/18 14:35:26;;;;;;;61.08;35.17;;;;;;;;;;5053797;28;20451;-84